Hovedside
METAR-TAF:

METAR-TAF

Lufthavner :

Luleå lufthavn

Luleå, Sverige

breddegrad: 65-33N, lengdegrad: 022-08E, høyde over havet: 17 m

Gjeldene værobservasjon

Denne rapporten ble laget for 23 minutter siden, klokken 05:20 UTC
Vind 17 kt fra Nordvest
Temperatur 1°C
Luftfuktighet 64%
Trykk 999 hPa
Sikt 10 km eller mer
ingen skyer under 1500 m og ingen bygeskyer

METAR: ESPA 090520Z 32017KT CAVOK 01/M05 Q0999

Tid: 07:43 (05:43 UTC)

Varsel

Denne rapporten ble laget for 13 minutter siden, klokken 05:30 UTC
Varsel gyldig fra 09. klokken 06 UTC til 09. klokken 15 UTC
Vind 13 kt fra Nord-nordvest
Sikt 10 km eller mer
ingen skyer under 1500 m og ingen bygeskyer

TAF: ESPA 090530Z 0906/0915 33013KT CAVOK

Værobservasjoner og værvarsel for over 4000 flyplasser (METAR- og TAF-rapporter).

Tilgjengelige stasjoner er representert av de røde og gule prikkene på kartet.

Hold musepekeren over prikken for å se navnet på stasjonen.

Klikk så for å se værobservasjoner og -varsler.

For å forandre kartet kan du klikke på den grønne knappen med svart kryss for å zoome inn, på den grønne knappen med strek for å zoome ut, eller på de grønne pilene for å se tilstøtende kart.


METAR-TAF: